sensor_id;sensor_type;location;lat;lon;timestamp;temperature;humidity
42833;DHT22;28479;51.478;5.692;2022-07-29T00:00:43;18.30;98.20
42833;DHT22;28479;51.478;5.692;2022-07-29T00:03:12;18.20;99.90
42833;DHT22;28479;51.478;5.692;2022-07-29T00:05:41;17.80;99.90
42833;DHT22;28479;51.478;5.692;2022-07-29T00:08:10;17.20;99.90
42833;DHT22;28479;51.478;5.692;2022-07-29T00:10:36;16.70;99.90
42833;DHT22;28479;51.478;5.692;2022-07-29T00:13:02;16.30;99.90
42833;DHT22;28479;51.478;5.692;2022-07-29T00:15:28;16.20;99.90
42833;DHT22;28479;51.478;5.692;2022-07-29T00:17:54;16.00;99.90
42833;DHT22;28479;51.478;5.692;2022-07-29T00:20:31;15.90;99.90
42833;DHT22;28479;51.478;5.692;2022-07-29T00:23:00;15.80;99.90
42833;DHT22;28479;51.478;5.692;2022-07-29T00:25:26;15.50;99.90
42833;DHT22;28479;51.478;5.692;2022-07-29T00:27:52;15.40;99.90
42833;DHT22;28479;51.478;5.692;2022-07-29T00:30:17;15.40;99.90
42833;DHT22;28479;51.478;5.692;2022-07-29T00:32:43;15.40;99.90
42833;DHT22;28479;51.478;5.692;2022-07-29T00:35:15;15.40;99.90
42833;DHT22;28479;51.478;5.692;2022-07-29T00:38:04;15.50;99.90
42833;DHT22;28479;51.478;5.692;2022-07-29T00:40:30;15.80;99.90
42833;DHT22;28479;51.478;5.692;2022-07-29T00:42:56;16.00;99.90
42833;DHT22;28479;51.478;5.692;2022-07-29T00:45:21;16.10;99.90
42833;DHT22;28479;51.478;5.692;2022-07-29T00:47:47;16.20;99.90
42833;DHT22;28479;51.478;5.692;2022-07-29T00:50:13;16.20;99.90
42833;DHT22;28479;51.478;5.692;2022-07-29T00:52:40;16.30;99.90
42833;DHT22;28479;51.478;5.692;2022-07-29T00:55:09;16.30;99.90
42833;DHT22;28479;51.478;5.692;2022-07-29T00:57:36;16.40;99.90
42833;DHT22;28479;51.478;5.692;2022-07-29T01:00:06;16.40;99.90
42833;DHT22;28479;51.478;5.692;2022-07-29T01:02:32;16.30;99.90
42833;DHT22;28479;51.478;5.692;2022-07-29T01:04:57;16.30;99.90
42833;DHT22;28479;51.478;5.692;2022-07-29T01:07:25;16.20;99.90
42833;DHT22;28479;51.478;5.692;2022-07-29T01:09:52;16.10;99.90
42833;DHT22;28479;51.478;5.692;2022-07-29T01:12:26;16.20;99.90
42833;DHT22;28479;51.478;5.692;2022-07-29T01:14:53;16.10;99.90
42833;DHT22;28479;51.478;5.692;2022-07-29T01:17:45;16.10;99.90
42833;DHT22;28479;51.478;5.692;2022-07-29T01:32:15;15.60;99.90
42833;DHT22;28479;51.478;5.692;2022-07-29T01:34:29;15.40;99.90
42833;DHT22;28479;51.478;5.692;2022-07-29T01:37:12;15.40;99.90
42833;DHT22;28479;51.478;5.692;2022-07-29T01:39:42;15.30;99.90
42833;DHT22;28479;51.478;5.692;2022-07-29T01:47:31;15.30;99.90
42833;DHT22;28479;51.478;5.692;2022-07-29T01:50:00;15.40;99.90
42833;DHT22;28479;51.478;5.692;2022-07-29T01:52:42;15.40;99.90
42833;DHT22;28479;51.478;5.692;2022-07-29T01:55:13;15.40;99.90
42833;DHT22;28479;51.478;5.692;2022-07-29T01:57:48;15.50;99.90
42833;DHT22;28479;51.478;5.692;2022-07-29T02:00:15;15.50;99.90
42833;DHT22;28479;51.478;5.692;2022-07-29T02:02:43;15.50;99.90
42833;DHT22;28479;51.478;5.692;2022-07-29T02:05:12;15.40;99.90
42833;DHT22;28479;51.478;5.692;2022-07-29T02:07:40;15.40;99.90
42833;DHT22;28479;51.478;5.692;2022-07-29T02:10:09;15.40;99.90
42833;DHT22;28479;51.478;5.692;2022-07-29T02:12:36;15.40;99.90
42833;DHT22;28479;51.478;5.692;2022-07-29T02:15:04;15.30;99.90
42833;DHT22;28479;51.478;5.692;2022-07-29T02:17:43;15.40;99.90
42833;DHT22;28479;51.478;5.692;2022-07-29T02:20:11;15.40;99.90
42833;DHT22;28479;51.478;5.692;2022-07-29T02:22:39;15.40;99.90
42833;DHT22;28479;51.478;5.692;2022-07-29T02:25:06;15.40;99.90
42833;DHT22;28479;51.478;5.692;2022-07-29T02:27:34;15.50;99.90
42833;DHT22;28479;51.478;5.692;2022-07-29T02:30:02;15.60;99.90
42833;DHT22;28479;51.478;5.692;2022-07-29T02:32:29;15.60;99.90
42833;DHT22;28479;51.478;5.692;2022-07-29T02:34:57;15.60;99.90
42833;DHT22;28479;51.478;5.692;2022-07-29T02:37:23;15.60;99.90
42833;DHT22;28479;51.478;5.692;2022-07-29T02:39:53;15.50;99.90
42833;DHT22;28479;51.478;5.692;2022-07-29T02:42:21;15.30;99.90
42833;DHT22;28479;51.478;5.692;2022-07-29T02:44:48;15.10;99.90
42833;DHT22;28479;51.478;5.692;2022-07-29T02:47:36;14.90;99.90
42833;DHT22;28479;51.478;5.692;2022-07-29T02:50:29;14.80;99.90
42833;DHT22;28479;51.478;5.692;2022-07-29T02:53:02;14.80;99.90
42833;DHT22;28479;51.478;5.692;2022-07-29T02:55:40;14.90;99.90
42833;DHT22;28479;51.478;5.692;2022-07-29T02:58:14;14.90;99.90
42833;DHT22;28479;51.478;5.692;2022-07-29T03:00:45;15.00;99.90
42833;DHT22;28479;51.478;5.692;2022-07-29T03:03:15;14.90;99.90
42833;DHT22;28479;51.478;5.692;2022-07-29T03:05:44;14.90;99.90
42833;DHT22;28479;51.478;5.692;2022-07-29T03:08:11;14.90;99.90
42833;DHT22;28479;51.478;5.692;2022-07-29T03:10:44;15.00;99.90
42833;DHT22;28479;51.478;5.692;2022-07-29T03:13:11;15.10;99.90
42833;DHT22;28479;51.478;5.692;2022-07-29T03:15:38;15.30;99.90
42833;DHT22;28479;51.478;5.692;2022-07-29T03:18:05;15.40;99.90
42833;DHT22;28479;51.478;5.692;2022-07-29T03:20:31;15.40;99.90
42833;DHT22;28479;51.478;5.692;2022-07-29T03:22:57;15.50;99.90
42833;DHT22;28479;51.478;5.692;2022-07-29T03:25:23;15.50;99.90
42833;DHT22;28479;51.478;5.692;2022-07-29T03:27:48;15.60;99.90
42833;DHT22;28479;51.478;5.692;2022-07-29T03:30:14;15.60;99.90
42833;DHT22;28479;51.478;5.692;2022-07-29T03:32:41;15.60;99.90
42833;DHT22;28479;51.478;5.692;2022-07-29T03:35:07;15.60;99.90
42833;DHT22;28479;51.478;5.692;2022-07-29T03:37:33;15.60;99.90
42833;DHT22;28479;51.478;5.692;2022-07-29T03:40:00;15.50;99.90
42833;DHT22;28479;51.478;5.692;2022-07-29T03:42:30;15.40;99.90
42833;DHT22;28479;51.478;5.692;2022-07-29T03:44:57;15.30;99.90
42833;DHT22;28479;51.478;5.692;2022-07-29T03:47:26;15.30;99.90
42833;DHT22;28479;51.478;5.692;2022-07-29T03:49:58;15.30;99.90
42833;DHT22;28479;51.478;5.692;2022-07-29T03:52:25;15.20;99.90
42833;DHT22;28479;51.478;5.692;2022-07-29T03:54:51;15.00;99.90
42833;DHT22;28479;51.478;5.692;2022-07-29T03:57:35;15.00;99.90
42833;DHT22;28479;51.478;5.692;2022-07-29T04:00:03;15.10;99.90
42833;DHT22;28479;51.478;5.692;2022-07-29T04:02:30;15.20;99.90
42833;DHT22;28479;51.478;5.692;2022-07-29T04:04:56;15.20;99.90
42833;DHT22;28479;51.478;5.692;2022-07-29T04:07:25;15.20;99.90
42833;DHT22;28479;51.478;5.692;2022-07-29T04:09:51;15.20;99.90
42833;DHT22;28479;51.478;5.692;2022-07-29T04:12:16;15.20;99.90
42833;DHT22;28479;51.478;5.692;2022-07-29T04:14:42;15.20;99.90
42833;DHT22;28479;51.478;5.692;2022-07-29T04:17:10;15.20;99.90
42833;DHT22;28479;51.478;5.692;2022-07-29T04:19:36;15.20;99.90
42833;DHT22;28479;51.478;5.692;2022-07-29T04:22:01;15.10;99.90
42833;DHT22;28479;51.478;5.692;2022-07-29T04:24:27;14.90;99.90
42833;DHT22;28479;51.478;5.692;2022-07-29T04:26:54;14.70;99.90
42833;DHT22;28479;51.478;5.692;2022-07-29T04:29:30;14.50;99.90
42833;DHT22;28479;51.478;5.692;2022-07-29T04:31:55;14.50;99.90
42833;DHT22;28479;51.478;5.692;2022-07-29T04:34:21;14.50;99.90
42833;DHT22;28479;51.478;5.692;2022-07-29T04:36:47;14.60;99.90
42833;DHT22;28479;51.478;5.692;2022-07-29T04:39:12;14.70;99.90
42833;DHT22;28479;51.478;5.692;2022-07-29T04:41:40;14.80;99.90
42833;DHT22;28479;51.478;5.692;2022-07-29T04:44:06;14.90;99.90
42833;DHT22;28479;51.478;5.692;2022-07-29T04:46:32;14.90;99.90
42833;DHT22;28479;51.478;5.692;2022-07-29T04:48:57;15.00;99.90
42833;DHT22;28479;51.478;5.692;2022-07-29T04:51:23;15.10;99.90
42833;DHT22;28479;51.478;5.692;2022-07-29T04:53:49;15.10;99.90
42833;DHT22;28479;51.478;5.692;2022-07-29T04:56:14;15.10;99.90
42833;DHT22;28479;51.478;5.692;2022-07-29T04:58:42;15.00;99.90
42833;DHT22;28479;51.478;5.692;2022-07-29T05:01:08;15.00;99.90
42833;DHT22;28479;51.478;5.692;2022-07-29T05:03:34;15.10;99.90
42833;DHT22;28479;51.478;5.692;2022-07-29T05:06:05;15.00;99.90
42833;DHT22;28479;51.478;5.692;2022-07-29T05:08:31;14.90;99.90
42833;DHT22;28479;51.478;5.692;2022-07-29T05:10:59;14.80;99.90
42833;DHT22;28479;51.478;5.692;2022-07-29T05:13:25;14.80;99.90
42833;DHT22;28479;51.478;5.692;2022-07-29T05:15:53;14.80;99.90
42833;DHT22;28479;51.478;5.692;2022-07-29T05:18:19;14.80;99.90
42833;DHT22;28479;51.478;5.692;2022-07-29T05:20:44;14.70;99.90
42833;DHT22;28479;51.478;5.692;2022-07-29T05:23:10;14.70;99.90
42833;DHT22;28479;51.478;5.692;2022-07-29T05:25:38;14.70;99.90
42833;DHT22;28479;51.478;5.692;2022-07-29T05:28:04;14.70;99.90
42833;DHT22;28479;51.478;5.692;2022-07-29T05:30:30;14.70;99.90
42833;DHT22;28479;51.478;5.692;2022-07-29T05:32:56;14.60;99.90
42833;DHT22;28479;51.478;5.692;2022-07-29T05:35:25;14.70;99.90
42833;DHT22;28479;51.478;5.692;2022-07-29T05:37:56;14.70;99.90
42833;DHT22;28479;51.478;5.692;2022-07-29T05:40:25;14.80;99.90
42833;DHT22;28479;51.478;5.692;2022-07-29T05:42:52;14.80;99.90
42833;DHT22;28479;51.478;5.692;2022-07-29T05:45:20;14.70;99.90
42833;DHT22;28479;51.478;5.692;2022-07-29T05:47:46;14.60;99.90
42833;DHT22;28479;51.478;5.692;2022-07-29T05:50:13;14.60;99.90
42833;DHT22;28479;51.478;5.692;2022-07-29T05:52:39;14.70;99.90
42833;DHT22;28479;51.478;5.692;2022-07-29T05:55:05;14.60;99.90
42833;DHT22;28479;51.478;5.692;2022-07-29T05:57:31;14.60;99.90
42833;DHT22;28479;51.478;5.692;2022-07-29T05:59:57;14.60;99.90
42833;DHT22;28479;51.478;5.692;2022-07-29T06:02:25;14.70;99.90
42833;DHT22;28479;51.478;5.692;2022-07-29T06:04:51;14.70;99.90
42833;DHT22;28479;51.478;5.692;2022-07-29T06:07:16;14.70;99.90
42833;DHT22;28479;51.478;5.692;2022-07-29T06:09:42;14.80;99.90
42833;DHT22;28479;51.478;5.692;2022-07-29T06:12:08;14.80;99.90
42833;DHT22;28479;51.478;5.692;2022-07-29T06:14:34;14.80;99.90
42833;DHT22;28479;51.478;5.692;2022-07-29T06:17:01;14.80;99.90
42833;DHT22;28479;51.478;5.692;2022-07-29T06:19:27;14.70;99.90
42833;DHT22;28479;51.478;5.692;2022-07-29T06:21:53;14.70;99.90
42833;DHT22;28479;51.478;5.692;2022-07-29T06:24:18;14.70;99.90
42833;DHT22;28479;51.478;5.692;2022-07-29T06:26:44;14.70;99.90
42833;DHT22;28479;51.478;5.692;2022-07-29T06:29:10;14.60;99.90
42833;DHT22;28479;51.478;5.692;2022-07-29T06:31:36;14.70;99.90
42833;DHT22;28479;51.478;5.692;2022-07-29T06:34:02;14.70;99.90
42833;DHT22;28479;51.478;5.692;2022-07-29T06:36:37;14.70;99.90
42833;DHT22;28479;51.478;5.692;2022-07-29T06:39:07;14.70;99.90
42833;DHT22;28479;51.478;5.692;2022-07-29T06:41:33;14.90;99.90
42833;DHT22;28479;51.478;5.692;2022-07-29T06:43:59;15.00;99.90
42833;DHT22;28479;51.478;5.692;2022-07-29T06:46:25;15.10;99.90
42833;DHT22;28479;51.478;5.692;2022-07-29T06:48:51;15.30;99.90
42833;DHT22;28479;51.478;5.692;2022-07-29T06:51:17;15.40;99.90
42833;DHT22;28479;51.478;5.692;2022-07-29T06:53:43;15.40;99.90
42833;DHT22;28479;51.478;5.692;2022-07-29T06:56:09;15.40;99.90
42833;DHT22;28479;51.478;5.692;2022-07-29T06:58:35;15.30;99.90
42833;DHT22;28479;51.478;5.692;2022-07-29T07:01:02;15.20;99.90
42833;DHT22;28479;51.478;5.692;2022-07-29T07:03:31;15.30;99.90
42833;DHT22;28479;51.478;5.692;2022-07-29T07:05:57;15.30;99.90
42833;DHT22;28479;51.478;5.692;2022-07-29T07:08:23;15.30;99.90
42833;DHT22;28479;51.478;5.692;2022-07-29T07:10:50;15.30;99.90
42833;DHT22;28479;51.478;5.692;2022-07-29T07:13:16;15.30;99.90
42833;DHT22;28479;51.478;5.692;2022-07-29T07:15:44;15.20;99.90
42833;DHT22;28479;51.478;5.692;2022-07-29T07:18:11;15.20;99.90
42833;DHT22;28479;51.478;5.692;2022-07-29T07:20:39;15.30;99.90
42833;DHT22;28479;51.478;5.692;2022-07-29T07:23:05;15.40;99.90
42833;DHT22;28479;51.478;5.692;2022-07-29T07:25:30;15.60;99.90
42833;DHT22;28479;51.478;5.692;2022-07-29T07:27:56;15.70;99.90
42833;DHT22;28479;51.478;5.692;2022-07-29T07:30:22;15.90;99.90
42833;DHT22;28479;51.478;5.692;2022-07-29T07:32:50;16.30;99.90
42833;DHT22;28479;51.478;5.692;2022-07-29T07:35:16;16.40;99.90
42833;DHT22;28479;51.478;5.692;2022-07-29T07:37:41;16.50;99.90
42833;DHT22;28479;51.478;5.692;2022-07-29T07:40:09;16.60;99.90
42833;DHT22;28479;51.478;5.692;2022-07-29T07:42:35;16.80;99.90
42833;DHT22;28479;51.478;5.692;2022-07-29T07:45:01;16.90;99.90
42833;DHT22;28479;51.478;5.692;2022-07-29T07:47:26;16.90;99.90
42833;DHT22;28479;51.478;5.692;2022-07-29T07:49:53;16.70;99.90
42833;DHT22;28479;51.478;5.692;2022-07-29T07:52:20;16.60;99.90
42833;DHT22;28479;51.478;5.692;2022-07-29T07:54:46;16.60;99.90
42833;DHT22;28479;51.478;5.692;2022-07-29T07:57:16;16.50;99.90
42833;DHT22;28479;51.478;5.692;2022-07-29T07:59:41;16.60;99.90
42833;DHT22;28479;51.478;5.692;2022-07-29T08:02:07;16.60;99.90
42833;DHT22;28479;51.478;5.692;2022-07-29T08:04:33;16.70;99.90
42833;DHT22;28479;51.478;5.692;2022-07-29T08:06:59;16.60;99.90
42833;DHT22;28479;51.478;5.692;2022-07-29T08:09:26;16.70;99.90
42833;DHT22;28479;51.478;5.692;2022-07-29T08:11:52;16.60;99.90
42833;DHT22;28479;51.478;5.692;2022-07-29T08:14:18;16.70;99.90
42833;DHT22;28479;51.478;5.692;2022-07-29T08:16:44;16.70;99.90
42833;DHT22;28479;51.478;5.692;2022-07-29T08:19:10;16.80;99.90
42833;DHT22;28479;51.478;5.692;2022-07-29T08:21:36;16.90;99.90
42833;DHT22;28479;51.478;5.692;2022-07-29T08:24:02;17.00;99.90
42833;DHT22;28479;51.478;5.692;2022-07-29T08:26:59;17.10;99.90
42833;DHT22;28479;51.478;5.692;2022-07-29T08:29:25;17.30;99.90
42833;DHT22;28479;51.478;5.692;2022-07-29T08:31:51;17.40;99.90
42833;DHT22;28479;51.478;5.692;2022-07-29T08:34:16;17.50;99.90
42833;DHT22;28479;51.478;5.692;2022-07-29T08:36:42;17.70;99.90
42833;DHT22;28479;51.478;5.692;2022-07-29T08:39:07;17.80;99.90
42833;DHT22;28479;51.478;5.692;2022-07-29T08:41:33;17.90;99.90
42833;DHT22;28479;51.478;5.692;2022-07-29T08:43:59;18.00;99.90
42833;DHT22;28479;51.478;5.692;2022-07-29T08:46:24;18.10;99.90
42833;DHT22;28479;51.478;5.692;2022-07-29T08:48:50;18.20;99.90
42833;DHT22;28479;51.478;5.692;2022-07-29T08:51:18;18.20;99.90
42833;DHT22;28479;51.478;5.692;2022-07-29T08:53:46;18.40;99.90
42833;DHT22;28479;51.478;5.692;2022-07-29T08:56:16;18.40;99.90
42833;DHT22;28479;51.478;5.692;2022-07-29T08:58:43;18.50;99.90
42833;DHT22;28479;51.478;5.692;2022-07-29T09:01:10;18.50;99.90
42833;DHT22;28479;51.478;5.692;2022-07-29T09:03:38;18.50;99.90
42833;DHT22;28479;51.478;5.692;2022-07-29T09:06:05;18.60;99.90
42833;DHT22;28479;51.478;5.692;2022-07-29T09:08:32;18.70;99.90
42833;DHT22;28479;51.478;5.692;2022-07-29T09:10:57;18.70;99.90
42833;DHT22;28479;51.478;5.692;2022-07-29T09:13:25;18.80;99.90
42833;DHT22;28479;51.478;5.692;2022-07-29T09:15:50;18.90;99.90
42833;DHT22;28479;51.478;5.692;2022-07-29T09:18:35;19.10;99.90
42833;DHT22;28479;51.478;5.692;2022-07-29T09:21:05;19.30;99.90
42833;DHT22;28479;51.478;5.692;2022-07-29T09:24:07;19.40;99.90
42833;DHT22;28479;51.478;5.692;2022-07-29T09:26:44;19.40;99.90
42833;DHT22;28479;51.478;5.692;2022-07-29T09:29:15;19.60;99.90
42833;DHT22;28479;51.478;5.692;2022-07-29T09:31:46;19.70;99.90
42833;DHT22;28479;51.478;5.692;2022-07-29T09:34:14;19.80;99.90
42833;DHT22;28479;51.478;5.692;2022-07-29T09:36:40;20.00;99.90
42833;DHT22;28479;51.478;5.692;2022-07-29T09:39:07;20.20;99.90
42833;DHT22;28479;51.478;5.692;2022-07-29T09:41:53;20.30;99.90
42833;DHT22;28479;51.478;5.692;2022-07-29T09:44:19;20.40;99.90
42833;DHT22;28479;51.478;5.692;2022-07-29T09:47:04;20.50;99.90
42833;DHT22;28479;51.478;5.692;2022-07-29T09:52:16;20.60;99.90
42833;DHT22;28479;51.478;5.692;2022-07-29T09:54:42;20.70;99.90
42833;DHT22;28479;51.478;5.692;2022-07-29T09:57:09;20.80;99.90
42833;DHT22;28479;51.478;5.692;2022-07-29T09:59:38;20.80;99.90
42833;DHT22;28479;51.478;5.692;2022-07-29T10:02:14;20.80;99.90
42833;DHT22;28479;51.478;5.692;2022-07-29T10:04:42;20.80;99.90
42833;DHT22;28479;51.478;5.692;2022-07-29T10:07:08;20.90;99.90
42833;DHT22;28479;51.478;5.692;2022-07-29T10:09:34;21.00;99.90
42833;DHT22;28479;51.478;5.692;2022-07-29T10:12:10;21.10;99.90
42833;DHT22;28479;51.478;5.692;2022-07-29T10:14:37;21.20;99.90
42833;DHT22;28479;51.478;5.692;2022-07-29T10:17:04;21.30;99.90
42833;DHT22;28479;51.478;5.692;2022-07-29T10:19:30;21.40;99.90
42833;DHT22;28479;51.478;5.692;2022-07-29T10:22:01;21.50;99.90
42833;DHT22;28479;51.478;5.692;2022-07-29T10:24:28;21.60;99.90
42833;DHT22;28479;51.478;5.692;2022-07-29T10:26:59;21.70;99.90
42833;DHT22;28479;51.478;5.692;2022-07-29T10:29:25;21.70;99.90
42833;DHT22;28479;51.478;5.692;2022-07-29T10:42:55;21.90;99.90
42833;DHT22;28479;51.478;5.692;2022-07-29T10:45:24;22.00;99.90
42833;DHT22;28479;51.478;5.692;2022-07-29T10:48:03;22.10;99.90
42833;DHT22;28479;51.478;5.692;2022-07-29T10:50:59;22.30;99.90
42833;DHT22;28479;51.478;5.692;2022-07-29T10:53:49;22.50;99.90
42833;DHT22;28479;51.478;5.692;2022-07-29T10:56:26;22.40;99.90
42833;DHT22;28479;51.478;5.692;2022-07-29T11:01:49;22.60;99.90
42833;DHT22;28479;51.478;5.692;2022-07-29T11:09:32;22.70;99.90
42833;DHT22;28479;51.478;5.692;2022-07-29T11:11:57;22.80;99.90
42833;DHT22;28479;51.478;5.692;2022-07-29T11:17:17;23.20;99.90
42833;DHT22;28479;51.478;5.692;2022-07-29T11:19:45;23.20;99.90
42833;DHT22;28479;51.478;5.692;2022-07-29T11:22:34;23.30;99.90
42833;DHT22;28479;51.478;5.692;2022-07-29T11:25:17;23.40;99.90
42833;DHT22;28479;51.478;5.692;2022-07-29T11:27:46;23.60;99.90
42833;DHT22;28479;51.478;5.692;2022-07-29T11:30:12;23.70;99.90
42833;DHT22;28479;51.478;5.692;2022-07-29T11:32:41;23.80;99.90
42833;DHT22;28479;51.478;5.692;2022-07-29T11:35:18;24.00;99.90
42833;DHT22;28479;51.478;5.692;2022-07-29T11:37:46;24.10;99.90
42833;DHT22;28479;51.478;5.692;2022-07-29T11:40:13;24.10;99.90
42833;DHT22;28479;51.478;5.692;2022-07-29T11:42:42;24.10;99.90
42833;DHT22;28479;51.478;5.692;2022-07-29T11:45:17;24.20;99.90
42833;DHT22;28479;51.478;5.692;2022-07-29T11:50:14;24.50;99.90
42833;DHT22;28479;51.478;5.692;2022-07-29T11:52:44;24.50;99.90
42833;DHT22;28479;51.478;5.692;2022-07-29T11:55:17;24.30;99.90
42833;DHT22;28479;51.478;5.692;2022-07-29T11:57:48;24.50;99.90
42833;DHT22;28479;51.478;5.692;2022-07-29T12:00:36;24.60;99.60
42833;DHT22;28479;51.478;5.692;2022-07-29T12:03:06;24.50;99.40
42833;DHT22;28479;51.478;5.692;2022-07-29T12:05:35;24.40;98.80
42833;DHT22;28479;51.478;5.692;2022-07-29T12:08:08;24.50;99.90
42833;DHT22;28479;51.478;5.692;2022-07-29T12:10:35;24.50;99.90
42833;DHT22;28479;51.478;5.692;2022-07-29T12:13:01;24.70;99.90
42833;DHT22;28479;51.478;5.692;2022-07-29T12:15:26;24.90;99.90
42833;DHT22;28479;51.478;5.692;2022-07-29T12:17:52;25.00;99.90
42833;DHT22;28479;51.478;5.692;2022-07-29T12:20:30;25.10;99.90
42833;DHT22;28479;51.478;5.692;2022-07-29T12:22:56;25.20;99.90
42833;DHT22;28479;51.478;5.692;2022-07-29T12:25:23;25.00;99.90
42833;DHT22;28479;51.478;5.692;2022-07-29T12:28:03;25.10;99.90
42833;DHT22;28479;51.478;5.692;2022-07-29T12:30:43;25.30;99.90
42833;DHT22;28479;51.478;5.692;2022-07-29T12:33:16;25.60;99.90
42833;DHT22;28479;51.478;5.692;2022-07-29T12:35:42;25.60;99.90
42833;DHT22;28479;51.478;5.692;2022-07-29T12:38:10;25.60;99.80
42833;DHT22;28479;51.478;5.692;2022-07-29T12:40:36;25.50;99.50
42833;DHT22;28479;51.478;5.692;2022-07-29T12:43:07;25.40;99.50
42833;DHT22;28479;51.478;5.692;2022-07-29T12:45:37;25.40;99.20
42833;DHT22;28479;51.478;5.692;2022-07-29T12:48:03;25.60;99.30
42833;DHT22;28479;51.478;5.692;2022-07-29T12:50:29;25.90;99.40
42833;DHT22;28479;51.478;5.692;2022-07-29T12:53:08;25.90;98.80
42833;DHT22;28479;51.478;5.692;2022-07-29T12:55:43;25.80;98.40
42833;DHT22;28479;51.478;5.692;2022-07-29T12:58:10;25.60;97.90
42833;DHT22;28479;51.478;5.692;2022-07-29T13:00:36;25.50;97.90
42833;DHT22;28479;51.478;5.692;2022-07-29T13:03:02;25.60;98.80
42833;DHT22;28479;51.478;5.692;2022-07-29T13:05:42;25.80;98.70
42833;DHT22;28479;51.478;5.692;2022-07-29T13:08:16;26.00;99.30
42833;DHT22;28479;51.478;5.692;2022-07-29T13:10:42;26.10;97.80
42833;DHT22;28479;51.478;5.692;2022-07-29T13:13:10;26.20;98.10
42833;DHT22;28479;51.478;5.692;2022-07-29T13:15:41;26.60;97.80
42833;DHT22;28479;51.478;5.692;2022-07-29T13:18:33;27.00;96.90
42833;DHT22;28479;51.478;5.692;2022-07-29T13:21:15;26.90;96.60
42833;DHT22;28479;51.478;5.692;2022-07-29T13:23:42;26.80;96.70
42833;DHT22;28479;51.478;5.692;2022-07-29T13:26:09;26.70;96.10
42833;DHT22;28479;51.478;5.692;2022-07-29T13:28:35;26.50;96.10
42833;DHT22;28479;51.478;5.692;2022-07-29T13:31:01;26.60;95.00
42833;DHT22;28479;51.478;5.692;2022-07-29T13:33:27;26.80;95.70
42833;DHT22;28479;51.478;5.692;2022-07-29T13:35:53;26.70;94.90
42833;DHT22;28479;51.478;5.692;2022-07-29T13:38:18;26.90;95.30
42833;DHT22;28479;51.478;5.692;2022-07-29T13:40:44;27.30;94.60
42833;DHT22;28479;51.478;5.692;2022-07-29T13:43:10;27.70;95.50
42833;DHT22;28479;51.478;5.692;2022-07-29T13:45:36;27.80;94.40
42833;DHT22;28479;51.478;5.692;2022-07-29T13:48:02;27.60;93.90
42833;DHT22;28479;51.478;5.692;2022-07-29T13:50:34;27.50;93.90
42833;DHT22;28479;51.478;5.692;2022-07-29T13:52:59;27.30;94.10
42833;DHT22;28479;51.478;5.692;2022-07-29T13:55:25;26.70;94.80
42833;DHT22;28479;51.478;5.692;2022-07-29T13:57:50;26.40;95.50
42833;DHT22;28479;51.478;5.692;2022-07-29T14:00:16;26.20;94.30
42833;DHT22;28479;51.478;5.692;2022-07-29T14:02:44;26.60;94.40
42833;DHT22;28479;51.478;5.692;2022-07-29T14:05:09;27.10;94.10
42833;DHT22;28479;51.478;5.692;2022-07-29T14:07:39;28.00;95.00
42833;DHT22;28479;51.478;5.692;2022-07-29T14:10:06;28.00;92.50
42833;DHT22;28479;51.478;5.692;2022-07-29T14:12:32;27.90;93.30
42833;DHT22;28479;51.478;5.692;2022-07-29T14:14:57;27.90;93.00
42833;DHT22;28479;51.478;5.692;2022-07-29T14:17:23;27.70;92.60
42833;DHT22;28479;51.478;5.692;2022-07-29T14:19:49;27.60;93.00
42833;DHT22;28479;51.478;5.692;2022-07-29T14:22:14;27.40;92.20
42833;DHT22;28479;51.478;5.692;2022-07-29T14:24:40;27.20;92.70
42833;DHT22;28479;51.478;5.692;2022-07-29T14:27:07;27.10;93.00
42833;DHT22;28479;51.478;5.692;2022-07-29T14:29:32;27.40;93.00
42833;DHT22;28479;51.478;5.692;2022-07-29T14:31:58;27.80;92.80
42833;DHT22;28479;51.478;5.692;2022-07-29T14:34:24;28.30;92.30
42833;DHT22;28479;51.478;5.692;2022-07-29T14:36:50;28.50;91.10
42833;DHT22;28479;51.478;5.692;2022-07-29T14:39:15;28.80;92.20
42833;DHT22;28479;51.478;5.692;2022-07-29T14:41:42;29.10;90.50
42833;DHT22;28479;51.478;5.692;2022-07-29T14:44:07;28.20;90.40
42833;DHT22;28479;51.478;5.692;2022-07-29T14:46:38;27.40;90.70
42833;DHT22;28479;51.478;5.692;2022-07-29T14:49:04;27.20;91.70
42833;DHT22;28479;51.478;5.692;2022-07-29T14:51:31;27.60;91.90
42833;DHT22;28479;51.478;5.692;2022-07-29T14:53:57;28.00;90.90
42833;DHT22;28479;51.478;5.692;2022-07-29T14:56:25;27.70;91.20
42833;DHT22;28479;51.478;5.692;2022-07-29T14:58:59;27.60;91.40
42833;DHT22;28479;51.478;5.692;2022-07-29T15:01:25;27.80;90.50
42833;DHT22;28479;51.478;5.692;2022-07-29T15:03:51;27.40;91.50
42833;DHT22;28479;51.478;5.692;2022-07-29T15:06:17;27.00;90.90
42833;DHT22;28479;51.478;5.692;2022-07-29T15:08:42;26.70;91.10
42833;DHT22;28479;51.478;5.692;2022-07-29T15:11:08;26.80;91.50
42833;DHT22;28479;51.478;5.692;2022-07-29T15:13:34;27.00;90.80
42833;DHT22;28479;51.478;5.692;2022-07-29T15:16:00;27.10;90.30
42833;DHT22;28479;51.478;5.692;2022-07-29T15:18:25;27.30;90.30
42833;DHT22;28479;51.478;5.692;2022-07-29T15:20:51;27.40;90.30
42833;DHT22;28479;51.478;5.692;2022-07-29T15:23:17;27.90;90.50
42833;DHT22;28479;51.478;5.692;2022-07-29T15:25:42;27.80;90.10
42833;DHT22;28479;51.478;5.692;2022-07-29T15:28:08;28.00;90.00
42833;DHT22;28479;51.478;5.692;2022-07-29T15:30:34;27.80;89.50
42833;DHT22;28479;51.478;5.692;2022-07-29T15:33:06;28.10;90.20
42833;DHT22;28479;51.478;5.692;2022-07-29T15:35:32;27.90;90.10
42833;DHT22;28479;51.478;5.692;2022-07-29T15:37:57;27.40;88.80
42833;DHT22;28479;51.478;5.692;2022-07-29T15:40:23;26.90;90.10
42833;DHT22;28479;51.478;5.692;2022-07-29T15:42:49;26.40;90.80
42833;DHT22;28479;51.478;5.692;2022-07-29T15:45:14;26.00;90.60
42833;DHT22;28479;51.478;5.692;2022-07-29T15:47:40;25.70;90.70
42833;DHT22;28479;51.478;5.692;2022-07-29T15:50:09;25.60;90.70
42833;DHT22;28479;51.478;5.692;2022-07-29T15:52:40;25.50;91.10
42833;DHT22;28479;51.478;5.692;2022-07-29T15:55:06;25.70;91.70
42833;DHT22;28479;51.478;5.692;2022-07-29T15:57:32;26.00;90.70
42833;DHT22;28479;51.478;5.692;2022-07-29T16:00:00;26.80;91.00
42833;DHT22;28479;51.478;5.692;2022-07-29T16:02:25;27.60;90.70
42833;DHT22;28479;51.478;5.692;2022-07-29T16:04:51;28.00;90.00
42833;DHT22;28479;51.478;5.692;2022-07-29T16:07:17;28.40;89.00
42833;DHT22;28479;51.478;5.692;2022-07-29T16:09:43;28.00;86.80
42833;DHT22;28479;51.478;5.692;2022-07-29T16:12:09;27.30;87.40
42833;DHT22;28479;51.478;5.692;2022-07-29T16:14:35;26.80;89.30
42833;DHT22;28479;51.478;5.692;2022-07-29T16:17:00;26.70;89.30
42833;DHT22;28479;51.478;5.692;2022-07-29T16:19:31;26.80;90.10
42833;DHT22;28479;51.478;5.692;2022-07-29T16:21:56;26.90;90.00